sensor_id;sensor_type;location;lat;lon;timestamp;P1;durP1;ratioP1;P2;durP2;ratioP2
79664;SDS011;69132;44.014;20.918;2023-05-28T00:00:33;34.63;;;27.27;;
79664;SDS011;69132;44.014;20.918;2023-05-28T00:02:59;34.55;;;27.67;;
79664;SDS011;69132;44.014;20.918;2023-05-28T00:05:25;30.65;;;27.13;;
79664;SDS011;69132;44.014;20.918;2023-05-28T00:07:52;29.90;;;24.13;;
79664;SDS011;69132;44.014;20.918;2023-05-28T00:10:21;30.70;;;25.55;;
79664;SDS011;69132;44.014;20.918;2023-05-28T00:12:48;29.80;;;24.60;;
79664;SDS011;69132;44.014;20.918;2023-05-28T00:15:15;29.52;;;23.95;;
79664;SDS011;69132;44.014;20.918;2023-05-28T00:17:41;29.23;;;24.08;;
79664;SDS011;69132;44.014;20.918;2023-05-28T00:20:08;27.35;;;23.17;;
79664;SDS011;69132;44.014;20.918;2023-05-28T00:22:35;28.10;;;23.52;;
79664;SDS011;69132;44.014;20.918;2023-05-28T00:25:01;26.65;;;22.63;;
79664;SDS011;69132;44.014;20.918;2023-05-28T00:27:28;25.52;;;22.10;;
79664;SDS011;69132;44.014;20.918;2023-05-28T00:29:54;27.73;;;22.08;;
79664;SDS011;69132;44.014;20.918;2023-05-28T00:32:20;26.98;;;20.05;;
79664;SDS011;69132;44.014;20.918;2023-05-28T00:34:46;26.25;;;19.48;;
79664;SDS011;69132;44.014;20.918;2023-05-28T00:37:12;26.27;;;19.92;;
79664;SDS011;69132;44.014;20.918;2023-05-28T00:39:39;24.15;;;21.17;;
79664;SDS011;69132;44.014;20.918;2023-05-28T00:42:05;23.80;;;18.27;;
79664;SDS011;69132;44.014;20.918;2023-05-28T00:44:32;27.77;;;20.45;;
79664;SDS011;69132;44.014;20.918;2023-05-28T00:46:59;22.65;;;18.00;;
79664;SDS011;69132;44.014;20.918;2023-05-28T00:49:25;23.17;;;19.15;;
79664;SDS011;69132;44.014;20.918;2023-05-28T00:51:52;20.48;;;17.95;;
79664;SDS011;69132;44.014;20.918;2023-05-28T00:54:20;22.15;;;19.70;;
79664;SDS011;69132;44.014;20.918;2023-05-28T00:56:47;23.40;;;19.15;;
79664;SDS011;69132;44.014;20.918;2023-05-28T00:59:16;24.48;;;20.23;;
79664;SDS011;69132;44.014;20.918;2023-05-28T01:01:42;24.70;;;20.05;;
79664;SDS011;69132;44.014;20.918;2023-05-28T01:04:09;24.83;;;21.90;;
79664;SDS011;69132;44.014;20.918;2023-05-28T01:06:36;23.05;;;20.65;;
79664;SDS011;69132;44.014;20.918;2023-05-28T01:09:06;25.08;;;20.77;;
79664;SDS011;69132;44.014;20.918;2023-05-28T01:11:33;25.85;;;22.95;;
79664;SDS011;69132;44.014;20.918;2023-05-28T01:13:59;25.90;;;23.23;;
79664;SDS011;69132;44.014;20.918;2023-05-28T01:16:26;30.60;;;25.58;;
79664;SDS011;69132;44.014;20.918;2023-05-28T01:18:54;29.42;;;25.02;;
79664;SDS011;69132;44.014;20.918;2023-05-28T01:21:23;27.27;;;23.20;;
79664;SDS011;69132;44.014;20.918;2023-05-28T01:23:50;27.42;;;23.25;;
79664;SDS011;69132;44.014;20.918;2023-05-28T01:26:16;22.98;;;19.75;;
79664;SDS011;69132;44.014;20.918;2023-05-28T01:28:43;23.85;;;20.23;;
79664;SDS011;69132;44.014;20.918;2023-05-28T01:31:12;23.92;;;19.92;;
79664;SDS011;69132;44.014;20.918;2023-05-28T01:33:38;22.90;;;19.37;;
79664;SDS011;69132;44.014;20.918;2023-05-28T01:36:06;23.85;;;19.58;;
79664;SDS011;69132;44.014;20.918;2023-05-28T01:41:01;21.30;;;18.73;;
79664;SDS011;69132;44.014;20.918;2023-05-28T01:43:28;22.58;;;20.10;;
79664;SDS011;69132;44.014;20.918;2023-05-28T01:45:57;26.33;;;18.73;;
79664;SDS011;69132;44.014;20.918;2023-05-28T01:48:23;21.90;;;19.05;;
79664;SDS011;69132;44.014;20.918;2023-05-28T01:50:51;22.73;;;18.35;;
79664;SDS011;69132;44.014;20.918;2023-05-28T01:53:17;21.75;;;18.17;;
79664;SDS011;69132;44.014;20.918;2023-05-28T01:55:44;22.40;;;18.52;;
79664;SDS011;69132;44.014;20.918;2023-05-28T01:58:10;21.58;;;17.40;;
79664;SDS011;69132;44.014;20.918;2023-05-28T02:00:41;20.90;;;17.33;;
79664;SDS011;69132;44.014;20.918;2023-05-28T02:03:08;23.58;;;17.98;;
79664;SDS011;69132;44.014;20.918;2023-05-28T02:05:36;22.93;;;17.33;;
79664;SDS011;69132;44.014;20.918;2023-05-28T02:08:02;20.45;;;16.48;;
79664;SDS011;69132;44.014;20.918;2023-05-28T02:10:29;19.90;;;16.70;;
79664;SDS011;69132;44.014;20.918;2023-05-28T02:12:55;21.00;;;17.00;;
79664;SDS011;69132;44.014;20.918;2023-05-28T02:15:21;23.02;;;18.13;;
79664;SDS011;69132;44.014;20.918;2023-05-28T02:17:48;23.05;;;17.63;;
79664;SDS011;69132;44.014;20.918;2023-05-28T02:20:14;20.25;;;17.92;;
79664;SDS011;69132;44.014;20.918;2023-05-28T02:22:41;23.42;;;18.42;;
79664;SDS011;69132;44.014;20.918;2023-05-28T02:25:07;19.23;;;17.23;;
79664;SDS011;69132;44.014;20.918;2023-05-28T02:27:33;19.40;;;16.27;;
79664;SDS011;69132;44.014;20.918;2023-05-28T02:30:01;21.00;;;16.13;;
79664;SDS011;69132;44.014;20.918;2023-05-28T02:32:27;19.08;;;14.63;;
79664;SDS011;69132;44.014;20.918;2023-05-28T02:34:53;18.52;;;16.35;;
79664;SDS011;69132;44.014;20.918;2023-05-28T02:37:20;20.63;;;16.80;;
79664;SDS011;69132;44.014;20.918;2023-05-28T02:39:49;19.20;;;16.38;;
79664;SDS011;69132;44.014;20.918;2023-05-28T02:42:15;20.15;;;16.77;;
79664;SDS011;69132;44.014;20.918;2023-05-28T02:44:41;18.42;;;15.88;;
79664;SDS011;69132;44.014;20.918;2023-05-28T02:47:08;17.13;;;15.25;;
79664;SDS011;69132;44.014;20.918;2023-05-28T02:49:34;18.25;;;15.35;;
79664;SDS011;69132;44.014;20.918;2023-05-28T02:52:00;19.85;;;15.65;;
79664;SDS011;69132;44.014;20.918;2023-05-28T02:54:26;17.50;;;15.20;;
79664;SDS011;69132;44.014;20.918;2023-05-28T02:56:52;18.70;;;15.80;;
79664;SDS011;69132;44.014;20.918;2023-05-28T02:59:19;19.88;;;15.38;;
79664;SDS011;69132;44.014;20.918;2023-05-28T03:01:45;20.70;;;15.98;;
79664;SDS011;69132;44.014;20.918;2023-05-28T03:04:11;19.85;;;15.35;;
79664;SDS011;69132;44.014;20.918;2023-05-28T03:06:37;19.55;;;15.63;;
79664;SDS011;69132;44.014;20.918;2023-05-28T03:09:03;17.98;;;15.52;;
79664;SDS011;69132;44.014;20.918;2023-05-28T03:11:31;20.20;;;16.17;;
79664;SDS011;69132;44.014;20.918;2023-05-28T03:13:57;19.00;;;14.95;;
79664;SDS011;69132;44.014;20.918;2023-05-28T03:16:23;20.42;;;15.73;;
79664;SDS011;69132;44.014;20.918;2023-05-28T03:18:50;19.58;;;15.07;;
79664;SDS011;69132;44.014;20.918;2023-05-28T03:21:18;18.30;;;16.35;;
79664;SDS011;69132;44.014;20.918;2023-05-28T03:23:45;23.05;;;17.15;;
79664;SDS011;69132;44.014;20.918;2023-05-28T03:26:11;17.92;;;16.02;;
79664;SDS011;69132;44.014;20.918;2023-05-28T03:28:38;20.75;;;17.08;;
79664;SDS011;69132;44.014;20.918;2023-05-28T03:31:04;18.98;;;16.20;;
79664;SDS011;69132;44.014;20.918;2023-05-28T03:33:30;22.23;;;17.50;;
79664;SDS011;69132;44.014;20.918;2023-05-28T03:35:56;22.50;;;18.25;;
79664;SDS011;69132;44.014;20.918;2023-05-28T03:38:22;22.75;;;17.75;;
79664;SDS011;69132;44.014;20.918;2023-05-28T03:40:48;21.55;;;16.98;;
79664;SDS011;69132;44.014;20.918;2023-05-28T03:43:14;18.10;;;16.05;;
79664;SDS011;69132;44.014;20.918;2023-05-28T03:45:40;17.88;;;15.35;;
79664;SDS011;69132;44.014;20.918;2023-05-28T03:48:06;19.50;;;16.73;;
79664;SDS011;69132;44.014;20.918;2023-05-28T03:50:32;18.58;;;16.38;;
79664;SDS011;69132;44.014;20.918;2023-05-28T03:52:58;21.13;;;16.83;;
79664;SDS011;69132;44.014;20.918;2023-05-28T03:55:25;17.95;;;15.07;;
79664;SDS011;69132;44.014;20.918;2023-05-28T03:57:52;18.17;;;15.38;;
79664;SDS011;69132;44.014;20.918;2023-05-28T04:00:18;16.48;;;14.70;;
79664;SDS011;69132;44.014;20.918;2023-05-28T04:02:44;19.98;;;14.52;;
79664;SDS011;69132;44.014;20.918;2023-05-28T04:05:11;18.02;;;15.27;;
79664;SDS011;69132;44.014;20.918;2023-05-28T04:07:37;19.77;;;16.20;;
79664;SDS011;69132;44.014;20.918;2023-05-28T04:10:05;20.23;;;18.00;;
79664;SDS011;69132;44.014;20.918;2023-05-28T04:12:31;16.47;;;14.73;;
79664;SDS011;69132;44.014;20.918;2023-05-28T04:14:57;20.98;;;15.95;;
79664;SDS011;69132;44.014;20.918;2023-05-28T04:17:25;21.75;;;15.95;;
79664;SDS011;69132;44.014;20.918;2023-05-28T04:19:53;21.30;;;15.35;;
79664;SDS011;69132;44.014;20.918;2023-05-28T04:22:19;22.55;;;15.40;;
79664;SDS011;69132;44.014;20.918;2023-05-28T04:24:46;17.33;;;14.80;;
79664;SDS011;69132;44.014;20.918;2023-05-28T04:27:12;19.92;;;14.85;;
79664;SDS011;69132;44.014;20.918;2023-05-28T04:29:38;22.50;;;16.40;;
79664;SDS011;69132;44.014;20.918;2023-05-28T04:32:04;29.38;;;23.42;;
79664;SDS011;69132;44.014;20.918;2023-05-28T04:34:34;22.40;;;17.63;;
79664;SDS011;69132;44.014;20.918;2023-05-28T04:37:00;20.75;;;17.33;;
79664;SDS011;69132;44.014;20.918;2023-05-28T04:39:26;25.10;;;20.25;;
79664;SDS011;69132;44.014;20.918;2023-05-28T04:41:53;26.02;;;21.00;;
79664;SDS011;69132;44.014;20.918;2023-05-28T04:44:19;21.67;;;17.67;;
79664;SDS011;69132;44.014;20.918;2023-05-28T04:46:51;20.10;;;16.67;;
79664;SDS011;69132;44.014;20.918;2023-05-28T04:49:17;18.65;;;15.82;;
79664;SDS011;69132;44.014;20.918;2023-05-28T04:51:44;20.85;;;15.52;;
79664;SDS011;69132;44.014;20.918;2023-05-28T04:54:10;21.65;;;17.27;;
79664;SDS011;69132;44.014;20.918;2023-05-28T04:56:36;24.30;;;21.67;;
79664;SDS011;69132;44.014;20.918;2023-05-28T04:59:02;60.30;;;37.30;;
79664;SDS011;69132;44.014;20.918;2023-05-28T05:01:34;86.88;;;59.80;;
79664;SDS011;69132;44.014;20.918;2023-05-28T05:04:00;56.40;;;40.88;;
79664;SDS011;69132;44.014;20.918;2023-05-28T05:06:27;32.05;;;26.42;;
79664;SDS011;69132;44.014;20.918;2023-05-28T05:08:53;24.15;;;19.05;;
79664;SDS011;69132;44.014;20.918;2023-05-28T05:11:20;19.75;;;16.80;;
79664;SDS011;69132;44.014;20.918;2023-05-28T05:13:46;19.40;;;16.67;;
79664;SDS011;69132;44.014;20.918;2023-05-28T05:16:12;26.40;;;18.15;;
79664;SDS011;69132;44.014;20.918;2023-05-28T05:18:38;26.85;;;17.50;;
79664;SDS011;69132;44.014;20.918;2023-05-28T05:21:05;20.83;;;16.75;;
79664;SDS011;69132;44.014;20.918;2023-05-28T05:23:35;20.25;;;17.67;;
79664;SDS011;69132;44.014;20.918;2023-05-28T05:26:01;24.38;;;17.98;;
79664;SDS011;69132;44.014;20.918;2023-05-28T05:28:27;18.63;;;15.35;;
79664;SDS011;69132;44.014;20.918;2023-05-28T05:30:53;22.95;;;18.20;;
79664;SDS011;69132;44.014;20.918;2023-05-28T05:33:20;30.20;;;19.10;;
79664;SDS011;69132;44.014;20.918;2023-05-28T05:35:46;21.48;;;17.60;;
79664;SDS011;69132;44.014;20.918;2023-05-28T05:38:15;22.70;;;17.23;;
79664;SDS011;69132;44.014;20.918;2023-05-28T05:40:41;22.00;;;17.02;;
79664;SDS011;69132;44.014;20.918;2023-05-28T05:43:07;26.65;;;17.75;;
79664;SDS011;69132;44.014;20.918;2023-05-28T05:45:33;19.70;;;17.60;;
79664;SDS011;69132;44.014;20.918;2023-05-28T05:47:59;22.23;;;18.00;;
79664;SDS011;69132;44.014;20.918;2023-05-28T05:50:25;20.83;;;17.70;;
79664;SDS011;69132;44.014;20.918;2023-05-28T05:52:52;24.92;;;18.50;;
79664;SDS011;69132;44.014;20.918;2023-05-28T05:55:18;22.70;;;18.63;;
79664;SDS011;69132;44.014;20.918;2023-05-28T05:57:45;22.98;;;18.48;;
79664;SDS011;69132;44.014;20.918;2023-05-28T06:00:12;24.50;;;18.40;;
79664;SDS011;69132;44.014;20.918;2023-05-28T06:02:38;22.48;;;17.73;;
79664;SDS011;69132;44.014;20.918;2023-05-28T06:05:04;21.55;;;18.55;;
79664;SDS011;69132;44.014;20.918;2023-05-28T06:07:31;22.45;;;18.83;;
79664;SDS011;69132;44.014;20.918;2023-05-28T06:09:58;24.48;;;19.65;;
79664;SDS011;69132;44.014;20.918;2023-05-28T06:12:24;24.73;;;20.63;;
79664;SDS011;69132;44.014;20.918;2023-05-28T06:14:50;23.33;;;18.90;;
79664;SDS011;69132;44.014;20.918;2023-05-28T06:17:17;24.70;;;20.02;;
79664;SDS011;69132;44.014;20.918;2023-05-28T06:19:43;25.50;;;19.13;;
79664;SDS011;69132;44.014;20.918;2023-05-28T06:22:09;23.55;;;18.70;;
79664;SDS011;69132;44.014;20.918;2023-05-28T06:24:35;24.75;;;18.98;;
79664;SDS011;69132;44.014;20.918;2023-05-28T06:27:03;26.67;;;19.27;;
79664;SDS011;69132;44.014;20.918;2023-05-28T06:29:31;28.23;;;20.75;;
79664;SDS011;69132;44.014;20.918;2023-05-28T06:31:57;20.90;;;17.42;;
79664;SDS011;69132;44.014;20.918;2023-05-28T06:34:24;21.20;;;17.88;;
79664;SDS011;69132;44.014;20.918;2023-05-28T06:36:51;26.90;;;19.13;;
79664;SDS011;69132;44.014;20.918;2023-05-28T06:39:17;21.25;;;18.50;;
79664;SDS011;69132;44.014;20.918;2023-05-28T06:41:46;26.77;;;19.67;;
79664;SDS011;69132;44.014;20.918;2023-05-28T06:44:13;24.27;;;19.55;;
79664;SDS011;69132;44.014;20.918;2023-05-28T06:46:39;25.30;;;20.80;;
79664;SDS011;69132;44.014;20.918;2023-05-28T06:49:05;23.83;;;19.55;;
79664;SDS011;69132;44.014;20.918;2023-05-28T06:51:32;42.33;;;19.20;;
79664;SDS011;69132;44.014;20.918;2023-05-28T06:53:58;22.55;;;18.67;;
79664;SDS011;69132;44.014;20.918;2023-05-28T06:56:25;22.75;;;18.75;;
79664;SDS011;69132;44.014;20.918;2023-05-28T06:58:51;20.77;;;17.40;;
79664;SDS011;69132;44.014;20.918;2023-05-28T07:01:17;24.17;;;17.10;;
79664;SDS011;69132;44.014;20.918;2023-05-28T07:03:43;21.17;;;17.35;;
79664;SDS011;69132;44.014;20.918;2023-05-28T07:06:09;19.60;;;16.73;;
79664;SDS011;69132;44.014;20.918;2023-05-28T07:08:35;21.15;;;17.08;;
79664;SDS011;69132;44.014;20.918;2023-05-28T07:11:07;20.85;;;16.20;;
79664;SDS011;69132;44.014;20.918;2023-05-28T07:13:33;19.60;;;16.13;;
79664;SDS011;69132;44.014;20.918;2023-05-28T07:15:59;19.52;;;16.08;;
79664;SDS011;69132;44.014;20.918;2023-05-28T07:18:25;25.25;;;17.45;;
79664;SDS011;69132;44.014;20.918;2023-05-28T07:20:58;20.30;;;16.25;;
79664;SDS011;69132;44.014;20.918;2023-05-28T07:23:25;21.67;;;17.17;;
79664;SDS011;69132;44.014;20.918;2023-05-28T07:25:51;24.00;;;16.48;;
79664;SDS011;69132;44.014;20.918;2023-05-28T07:28:17;21.75;;;16.80;;
79664;SDS011;69132;44.014;20.918;2023-05-28T07:30:45;20.90;;;16.52;;
79664;SDS011;69132;44.014;20.918;2023-05-28T07:33:12;21.73;;;17.42;;
79664;SDS011;69132;44.014;20.918;2023-05-28T07:35:39;21.95;;;16.63;;
79664;SDS011;69132;44.014;20.918;2023-05-28T07:38:05;22.23;;;16.17;;
79664;SDS011;69132;44.014;20.918;2023-05-28T07:40:32;19.70;;;15.45;;
79664;SDS011;69132;44.014;20.918;2023-05-28T07:42:58;19.83;;;16.15;;
79664;SDS011;69132;44.014;20.918;2023-05-28T07:45:25;18.85;;;15.68;;
79664;SDS011;69132;44.014;20.918;2023-05-28T07:47:51;24.35;;;16.70;;
79664;SDS011;69132;44.014;20.918;2023-05-28T07:50:17;24.48;;;16.58;;
79664;SDS011;69132;44.014;20.918;2023-05-28T07:52:43;18.50;;;15.25;;
79664;SDS011;69132;44.014;20.918;2023-05-28T07:55:11;20.40;;;16.02;;
79664;SDS011;69132;44.014;20.918;2023-05-28T07:57:37;20.38;;;16.05;;
79664;SDS011;69132;44.014;20.918;2023-05-28T08:00:04;20.88;;;16.85;;
79664;SDS011;69132;44.014;20.918;2023-05-28T08:02:39;20.02;;;16.00;;
79664;SDS011;69132;44.014;20.918;2023-05-28T08:05:05;22.27;;;16.35;;
79664;SDS011;69132;44.014;20.918;2023-05-28T08:07:31;20.17;;;16.60;;
79664;SDS011;69132;44.014;20.918;2023-05-28T08:09:58;18.73;;;15.55;;
79664;SDS011;69132;44.014;20.918;2023-05-28T08:12:25;20.63;;;15.98;;
79664;SDS011;69132;44.014;20.918;2023-05-28T08:14:52;20.80;;;16.27;;
79664;SDS011;69132;44.014;20.918;2023-05-28T08:17:20;22.45;;;17.02;;
79664;SDS011;69132;44.014;20.918;2023-05-28T08:19:46;21.75;;;17.15;;
79664;SDS011;69132;44.014;20.918;2023-05-28T08:22:12;23.92;;;18.20;;
79664;SDS011;69132;44.014;20.918;2023-05-28T08:24:38;27.52;;;18.90;;
79664;SDS011;69132;44.014;20.918;2023-05-28T08:27:07;21.35;;;17.17;;
79664;SDS011;69132;44.014;20.918;2023-05-28T08:29:33;22.70;;;17.38;;
79664;SDS011;69132;44.014;20.918;2023-05-28T08:32:00;24.77;;;19.13;;
79664;SDS011;69132;44.014;20.918;2023-05-28T08:34:27;22.85;;;18.83;;
79664;SDS011;69132;44.014;20.918;2023-05-28T08:36:53;24.40;;;18.58;;
79664;SDS011;69132;44.014;20.918;2023-05-28T08:39:20;25.25;;;19.08;;
79664;SDS011;69132;44.014;20.918;2023-05-28T08:41:49;22.40;;;18.73;;
79664;SDS011;69132;44.014;20.918;2023-05-28T08:44:15;25.30;;;19.55;;
79664;SDS011;69132;44.014;20.918;2023-05-28T08:46:41;22.80;;;17.63;;
79664;SDS011;69132;44.014;20.918;2023-05-28T08:49:09;22.90;;;17.73;;
79664;SDS011;69132;44.014;20.918;2023-05-28T08:51:36;22.95;;;18.80;;
79664;SDS011;69132;44.014;20.918;2023-05-28T08:54:03;27.45;;;19.70;;
79664;SDS011;69132;44.014;20.918;2023-05-28T08:56:29;23.38;;;19.50;;
79664;SDS011;69132;44.014;20.918;2023-05-28T08:58:56;22.63;;;18.70;;
79664;SDS011;69132;44.014;20.918;2023-05-28T09:01:23;23.33;;;19.13;;
79664;SDS011;69132;44.014;20.918;2023-05-28T09:03:49;27.75;;;19.02;;
79664;SDS011;69132;44.014;20.918;2023-05-28T09:06:16;21.27;;;17.75;;
79664;SDS011;69132;44.014;20.918;2023-05-28T09:08:43;22.30;;;17.70;;
79664;SDS011;69132;44.014;20.918;2023-05-28T09:11:11;21.20;;;18.58;;
79664;SDS011;69132;44.014;20.918;2023-05-28T09:13:41;21.38;;;17.85;;
79664;SDS011;69132;44.014;20.918;2023-05-28T09:16:08;21.02;;;18.05;;
79664;SDS011;69132;44.014;20.918;2023-05-28T09:18:34;21.70;;;18.15;;
79664;SDS011;69132;44.014;20.918;2023-05-28T09:21:01;21.50;;;18.02;;
79664;SDS011;69132;44.014;20.918;2023-05-28T09:23:32;21.75;;;19.10;;
79664;SDS011;69132;44.014;20.918;2023-05-28T09:25:59;31.55;;;23.23;;
79664;SDS011;69132;44.014;20.918;2023-05-28T09:28:28;21.90;;;18.10;;
79664;SDS011;69132;44.014;20.918;2023-05-28T09:31:03;21.55;;;18.17;;
79664;SDS011;69132;44.014;20.918;2023-05-28T09:33:30;19.55;;;17.55;;
79664;SDS011;69132;44.014;20.918;2023-05-28T09:35:58;19.13;;;16.45;;
79664;SDS011;69132;44.014;20.918;2023-05-28T09:38:25;23.80;;;17.48;;
79664;SDS011;69132;44.014;20.918;2023-05-28T09:40:53;23.15;;;18.88;;
79664;SDS011;69132;44.014;20.918;2023-05-28T09:43:26;18.95;;;16.95;;
79664;SDS011;69132;44.014;20.918;2023-05-28T09:46:08;21.52;;;17.75;;
79664;SDS011;69132;44.014;20.918;2023-05-28T09:48:34;21.10;;;17.73;;
79664;SDS011;69132;44.014;20.918;2023-05-28T09:51:04;21.20;;;16.73;;
79664;SDS011;69132;44.014;20.918;2023-05-28T09:53:31;20.02;;;17.63;;
79664;SDS011;69132;44.014;20.918;2023-05-28T09:56:01;17.45;;;15.65;;
79664;SDS011;69132;44.014;20.918;2023-05-28T09:58:32;19.47;;;17.37;;
79664;SDS011;69132;44.014;20.918;2023-05-28T10:01:08;18.77;;;16.58;;
79664;SDS011;69132;44.014;20.918;2023-05-28T10:03:48;20.65;;;17.48;;
79664;SDS011;69132;44.014;20.918;2023-05-28T10:06:18;19.95;;;17.75;;
79664;SDS011;69132;44.014;20.918;2023-05-28T10:08:51;18.27;;;16.45;;
79664;SDS011;69132;44.014;20.918;2023-05-28T10:11:21;19.83;;;16.42;;
79664;SDS011;69132;44.014;20.918;2023-05-28T10:13:48;18.10;;;16.17;;
79664;SDS011;69132;44.014;20.918;2023-05-28T10:16:14;19.17;;;15.77;;
79664;SDS011;69132;44.014;20.918;2023-05-28T10:18:43;19.52;;;15.80;;
79664;SDS011;69132;44.014;20.918;2023-05-28T10:21:10;17.80;;;15.90;;
79664;SDS011;69132;44.014;20.918;2023-05-28T10:23:38;16.92;;;15.27;;
79664;SDS011;69132;44.014;20.918;2023-05-28T10:26:04;18.83;;;16.23;;
79664;SDS011;69132;44.014;20.918;2023-05-28T10:28:31;18.10;;;15.15;;
79664;SDS011;69132;44.014;20.918;2023-05-28T10:31:04;16.67;;;14.90;;
79664;SDS011;69132;44.014;20.918;2023-05-28T10:33:31;16.77;;;14.35;;
79664;SDS011;69132;44.014;20.918;2023-05-28T10:36:00;15.25;;;13.65;;
79664;SDS011;69132;44.014;20.918;2023-05-28T10:38:26;15.52;;;13.80;;
79664;SDS011;69132;44.014;20.918;2023-05-28T10:40:59;17.20;;;13.90;;
79664;SDS011;69132;44.014;20.918;2023-05-28T10:48:31;14.65;;;12.65;;
79664;SDS011;69132;44.014;20.918;2023-05-28T10:50:57;16.37;;;13.77;;
79664;SDS011;69132;44.014;20.918;2023-05-28T10:53:25;15.18;;;13.43;;
79664;SDS011;69132;44.014;20.918;2023-05-28T10:55:52;15.85;;;12.68;;
79664;SDS011;69132;44.014;20.918;2023-05-28T10:58:52;13.13;;;11.68;;
79664;SDS011;69132;44.014;20.918;2023-05-28T11:03:41;16.13;;;12.50;;
79664;SDS011;69132;44.014;20.918;2023-05-28T11:06:07;12.95;;;11.63;;
79664;SDS011;69132;44.014;20.918;2023-05-28T11:08:40;12.77;;;11.48;;
79664;SDS011;69132;44.014;20.918;2023-05-28T11:11:07;13.27;;;12.02;;
79664;SDS011;69132;44.014;20.918;2023-05-28T11:13:33;14.38;;;12.45;;
79664;SDS011;69132;44.014;20.918;2023-05-28T11:16:10;15.95;;;13.57;;
79664;SDS011;69132;44.014;20.918;2023-05-28T11:18:39;14.32;;;12.90;;
79664;SDS011;69132;44.014;20.918;2023-05-28T11:21:06;15.27;;;13.68;;
79664;SDS011;69132;44.014;20.918;2023-05-28T11:23:32;15.27;;;13.75;;
79664;SDS011;69132;44.014;20.918;2023-05-28T11:25:59;15.60;;;13.90;;
79664;SDS011;69132;44.014;20.918;2023-05-28T11:28:26;15.38;;;13.23;;
79664;SDS011;69132;44.014;20.918;2023-05-28T11:30:52;15.38;;;13.18;;
79664;SDS011;69132;44.014;20.918;2023-05-28T11:33:18;16.63;;;13.63;;
79664;SDS011;69132;44.014;20.918;2023-05-28T11:35:44;19.83;;;14.88;;
79664;SDS011;69132;44.014;20.918;2023-05-28T11:38:11;18.48;;;13.40;;
79664;SDS011;69132;44.014;20.918;2023-05-28T11:40:38;16.75;;;14.82;;
79664;SDS011;69132;44.014;20.918;2023-05-28T11:43:04;15.57;;;13.68;;
79664;SDS011;69132;44.014;20.918;2023-05-28T11:45:37;14.93;;;13.13;;
79664;SDS011;69132;44.014;20.918;2023-05-28T11:48:03;17.38;;;13.70;;
79664;SDS011;69132;44.014;20.918;2023-05-28T11:50:32;14.85;;;13.23;;
79664;SDS011;69132;44.014;20.918;2023-05-28T11:52:58;15.07;;;13.50;;
79664;SDS011;69132;44.014;20.918;2023-05-28T11:55:28;15.75;;;13.70;;
79664;SDS011;69132;44.014;20.918;2023-05-28T11:57:55;15.32;;;13.82;;
79664;SDS011;69132;44.014;20.918;2023-05-28T12:00:31;15.43;;;13.77;;
79664;SDS011;69132;44.014;20.918;2023-05-28T12:03:17;17.90;;;12.70;;
79664;SDS011;69132;44.014;20.918;2023-05-28T12:05:43;14.80;;;12.50;;
79664;SDS011;69132;44.014;20.918;2023-05-28T12:08:10;14.23;;;12.25;;
79664;SDS011;69132;44.014;20.918;2023-05-28T12:10:36;17.23;;;14.20;;
79664;SDS011;69132;44.014;20.918;2023-05-28T12:13:02;15.73;;;12.88;;
79664;SDS011;69132;44.014;20.918;2023-05-28T12:15:30;13.60;;;11.73;;
79664;SDS011;69132;44.014;20.918;2023-05-28T12:17:58;13.75;;;12.38;;
79664;SDS011;69132;44.014;20.918;2023-05-28T12:20:29;13.70;;;12.30;;
79664;SDS011;69132;44.014;20.918;2023-05-28T12:23:07;13.43;;;12.07;;
79664;SDS011;69132;44.014;20.918;2023-05-28T12:25:38;12.75;;;11.43;;
79664;SDS011;69132;44.014;20.918;2023-05-28T12:28:04;12.02;;;10.75;;
79664;SDS011;69132;44.014;20.918;2023-05-28T12:30:30;12.88;;;11.27;;
79664;SDS011;69132;44.014;20.918;2023-05-28T12:32:56;13.30;;;11.90;;
79664;SDS011;69132;44.014;20.918;2023-05-28T12:35:22;13.23;;;11.45;;
79664;SDS011;69132;44.014;20.918;2023-05-28T12:37:49;13.15;;;11.80;;
79664;SDS011;69132;44.014;20.918;2023-05-28T12:40:15;13.35;;;11.95;;
79664;SDS011;69132;44.014;20.918;2023-05-28T12:42:41;13.60;;;12.20;;
79664;SDS011;69132;44.014;20.918;2023-05-28T12:45:07;13.32;;;11.85;;
79664;SDS011;69132;44.014;20.918;2023-05-28T12:47:33;13.15;;;11.77;;
79664;SDS011;69132;44.014;20.918;2023-05-28T12:49:59;13.75;;;11.85;;
79664;SDS011;69132;44.014;20.918;2023-05-28T12:52:26;13.18;;;11.82;;
79664;SDS011;69132;44.014;20.918;2023-05-28T12:54:52;12.25;;;10.65;;
79664;SDS011;69132;44.014;20.918;2023-05-28T12:57:18;11.27;;;10.10;;
79664;SDS011;69132;44.014;20.918;2023-05-28T12:59:44;11.93;;;10.80;;
79664;SDS011;69132;44.014;20.918;2023-05-28T13:02:10;13.10;;;10.35;;
79664;SDS011;69132;44.014;20.918;2023-05-28T13:04:36;11.63;;;10.55;;
79664;SDS011;69132;44.014;20.918;2023-05-28T13:07:03;12.27;;;11.07;;
79664;SDS011;69132;44.014;20.918;2023-05-28T13:09:30;13.73;;;12.33;;
79664;SDS011;69132;44.014;20.918;2023-05-28T13:11:57;12.02;;;10.35;;
79664;SDS011;69132;44.014;20.918;2023-05-28T13:14:23;14.10;;;11.68;;
79664;SDS011;69132;44.014;20.918;2023-05-28T13:16:49;12.35;;;10.88;;
79664;SDS011;69132;44.014;20.918;2023-05-28T13:19:15;13.07;;;11.73;;
79664;SDS011;69132;44.014;20.918;2023-05-28T13:21:41;12.50;;;10.80;;
79664;SDS011;69132;44.014;20.918;2023-05-28T13:24:07;12.90;;;10.55;;
79664;SDS011;69132;44.014;20.918;2023-05-28T13:26:34;12.88;;;10.30;;
79664;SDS011;69132;44.014;20.918;2023-05-28T13:29:03;11.90;;;10.47;;
79664;SDS011;69132;44.014;20.918;2023-05-28T13:31:31;10.68;;;9.00;;
79664;SDS011;69132;44.014;20.918;2023-05-28T13:33:59;12.60;;;10.85;;
79664;SDS011;69132;44.014;20.918;2023-05-28T13:36:25;11.87;;;10.60;;
79664;SDS011;69132;44.014;20.918;2023-05-28T13:38:52;10.65;;;8.27;;
79664;SDS011;69132;44.014;20.918;2023-05-28T13:41:22;13.10;;;9.63;;
79664;SDS011;69132;44.014;20.918;2023-05-28T13:43:52;9.93;;;8.80;;
79664;SDS011;69132;44.014;20.918;2023-05-28T13:46:20;8.63;;;7.80;;
79664;SDS011;69132;44.014;20.918;2023-05-28T13:48:46;9.50;;;8.50;;
79664;SDS011;69132;44.014;20.918;2023-05-28T13:51:13;8.85;;;7.95;;
79664;SDS011;69132;44.014;20.918;2023-05-28T13:53:39;10.35;;;9.13;;
79664;SDS011;69132;44.014;20.918;2023-05-28T13:56:05;10.30;;;9.20;;
79664;SDS011;69132;44.014;20.918;2023-05-28T13:58:33;10.18;;;9.18;;
79664;SDS011;69132;44.014;20.918;2023-05-28T14:00:59;11.03;;;9.47;;
79664;SDS011;69132;44.014;20.918;2023-05-28T14:03:26;11.18;;;9.75;;
79664;SDS011;69132;44.014;20.918;2023-05-28T14:05:53;12.68;;;10.10;;
79664;SDS011;69132;44.014;20.918;2023-05-28T14:08:19;13.48;;;9.77;;
79664;SDS011;69132;44.014;20.918;2023-05-28T14:10:45;9.55;;;8.60;;
79664;SDS011;69132;44.014;20.918;2023-05-28T14:13:11;13.10;;;9.40;;
79664;SDS011;69132;44.014;20.918;2023-05-28T14:15:38;11.43;;;9.48;;
79664;SDS011;69132;44.014;20.918;2023-05-28T14:18:05;11.68;;;8.90;;